Retsil, WA (98378)

4:24 PM PDT on July 28, 2016 (GMT -0700)
EPO | | Change Station

Elev 276 ft 47.52 °N, 122.63 °W | Updated 12 minutes ago

Clear
Clear
86.0 °F
Feels Like 86 °F
N
10.4
Wind Variable Wind from NE

Today
High -- | Low -- °F
--% Chance of Precip.
Yesterday
High -- | Low -- °F
Precip. -- in
Pressure 30.08 in
Visibility 10.0 miles
Clouds Clear
Heat Index 86 °F
Dew Point 60 °F
Humidity 41%
Rainfall 0.00 in
Snow Depth Not available.
5:43 AM 8:49 PM
Waning Crescent, 28% visible
METAR KPWT 282315Z AUTO 36007KT 10SM CLR 31/16 A3008 RMK AO1
Pressure 30.08 in
Visibility 10.0 miles
Clouds Clear
Heat Index 86 °F
Dew Point 60 °F
Humidity 41%
Rainfall 0.00 in
Snow Depth Not available.
5:43 AM 8:49 PM
Waning Crescent, 28% visible
METAR KPWT 282315Z AUTO 36007KT 10SM CLR 31/16 A3008 RMK AO1

10-Day Weather Forecast

Almanac

Astronomy

Jul. 28, 2016 Rise Set
Actual Time
Civil Twilight
Nautical Twilight
Astronomical Twilight
Moon
Length of Visible Light
Length of Day
Tomorrow will be .
, % of the Moon is Illuminated

Today's Extremes

State Highs State Lows

Community

WunderPhotos

Upload Photos

1,928,228 photos uploaded!

WunderBlog® & News

Nearby

Air Quality

  Air Quality AQ Index Pollutant
Not available.

Snow Depth

Station Depth Elevation

Earthquake Activity

City Distance Mag. Time & Date
Minimum magnitude displayed is 2.5.

Coastal Water Temperatures

Place Temperature

Stations

Nearby Weather Stations

Station Location Temp. Windchill Dew Point Humidity Wind Precip. Elev Updated Type
                   

Watches & Warnings

There are currently no watches in effect.